Time;durP1;ratioP1;P1;durP2;ratioP2;P2;SDS_P1;SDS_P2;PMS_P1;PMS_P2;Temp;Humidity;BMP_temperature;BMP_pressure;BME280_temperature;BME280_humidity;BME280_pressure;Samples;Min_cycle;Max_cycle;Signal;HPM_P1;HPM_P2
2022/09/26 00:01:35;;;;;;;2.15;1.20;;;12.00;99.90;;;;;;5066288;28;20192;-69
2022/09/26 00:04:08;;;;;;;1.50;1.00;;;12.00;99.90;;;;;;5076243;28;20172;-70
2022/09/26 00:06:36;;;;;;;1.92;1.10;;;12.00;99.90;;;;;;5066114;28;20310;-69
2022/09/26 00:09:02;;;;;;;2.50;1.13;;;12.00;99.90;;;;;;5063651;28;20205;-68
2022/09/26 00:11:30;;;;;;;2.22;1.30;;;12.00;99.90;;;;;;5064748;28;20207;-69
2022/09/26 00:13:59;;;;;;;3.25;1.05;;;12.10;99.90;;;;;;5063550;28;20221;-68
2022/09/26 00:16:25;;;;;;;1.85;1.20;;;12.10;99.90;;;;;;5072441;28;20212;-68
2022/09/26 00:18:56;;;;;;;1.65;1.20;;;12.10;99.90;;;;;;5067905;28;20318;-70
2022/09/26 00:21:30;;;;;;;3.35;1.33;;;12.10;99.90;;;;;;5057083;28;20188;-70
2022/09/26 00:23:57;;;;;;;2.28;1.48;;;12.20;99.90;;;;;;5073754;28;20180;-69
2022/09/26 00:26:24;;;;;;;1.27;1.05;;;12.20;99.90;;;;;;5069861;28;20197;-69
2022/09/26 00:28:50;;;;;;;3.10;1.48;;;12.20;99.90;;;;;;5065469;28;20178;-68
2022/09/26 00:31:29;;;;;;;2.78;1.40;;;12.20;99.90;;;;;;5071837;28;20183;-69
2022/09/26 00:33:56;;;;;;;2.05;1.25;;;12.20;99.90;;;;;;5071801;28;20210;-69
2022/09/26 00:36:21;;;;;;;2.38;1.20;;;12.30;99.90;;;;;;5072721;28;20191;-69
2022/09/26 00:38:47;;;;;;;1.33;1.23;;;12.30;99.90;;;;;;5071385;28;20193;-69
2022/09/26 00:41:15;;;;;;;2.25;1.23;;;12.30;99.90;;;;;;5088180;28;20205;-68
2022/09/26 00:43:40;;;;;;;1.48;1.00;;;12.40;99.90;;;;;;5086001;28;20173;-70
2022/09/26 00:46:42;;;;;;;2.58;1.30;;;12.30;99.90;;;;;;5070345;28;20183;-68
2022/09/26 00:49:32;;;;;;;3.75;1.20;;;12.30;99.90;;;;;;5064371;28;20259;-69
2022/09/26 00:52:04;;;;;;;3.88;1.20;;;12.30;99.90;;;;;;5065780;28;20173;-70
2022/09/26 00:54:30;;;;;;;2.22;1.17;;;12.30;99.90;;;;;;5066365;28;20168;-70
2022/09/26 00:57:03;;;;;;;3.35;1.40;;;12.30;99.90;;;;;;5065747;28;20253;-69
2022/09/26 00:59:38;;;;;;;2.30;1.30;;;12.30;99.90;;;;;;5051740;28;20208;-69
2022/09/26 01:02:04;;;;;;;2.40;1.30;;;12.20;99.90;;;;;;5071604;28;20187;-69
2022/09/26 01:04:32;;;;;;;1.50;1.00;;;12.20;99.90;;;;;;5067199;28;20161;-69
2022/09/26 01:07:06;;;;;;;2.30;1.27;;;12.20;99.90;;;;;;5066464;28;20184;-69
2022/09/26 01:09:32;;;;;;;1.88;1.15;;;12.20;99.90;;;;;;5063095;28;20181;-70
2022/09/26 01:12:00;;;;;;;1.52;1.08;;;12.20;99.90;;;;;;5063359;28;20217;-69
2022/09/26 01:14:26;;;;;;;1.60;1.00;;;12.20;99.90;;;;;;5072728;28;20188;-70
2022/09/26 01:16:55;;;;;;;2.25;1.20;;;12.20;99.90;;;;;;5069778;28;20177;-67
2022/09/26 01:19:46;;;;;;;1.38;1.10;;;12.20;99.90;;;;;;5063933;28;20279;-69
2022/09/26 01:22:52;;;;;;;2.17;1.10;;;12.20;99.90;;;;;;5066518;28;20178;-69
2022/09/26 01:25:27;;;;;;;1.48;1.10;;;12.20;99.90;;;;;;5073846;28;20169;-70
2022/09/26 01:28:30;;;;;;;1.50;1.30;;;12.20;99.90;;;;;;5072726;28;20267;-69
2022/09/26 01:31:14;;;;;;;2.15;1.25;;;12.20;99.90;;;;;;5064630;28;20187;-68
2022/09/26 01:33:55;;;;;;;3.90;1.13;;;12.20;99.90;;;;;;5069967;28;20176;-69
2022/09/26 01:37:13;;;;;;;2.35;1.20;;;12.20;99.90;;;;;;5070023;28;20179;-69
2022/09/26 01:40:09;;;;;;;4.10;1.15;;;12.20;99.90;;;;;;5054997;28;20224;-70
2022/09/26 01:43:06;;;;;;;2.28;1.27;;;12.20;99.90;;;;;;5069529;28;20176;-69
2022/09/26 01:46:03;;;;;;;1.35;1.20;;;12.20;99.90;;;;;;5063224;28;20169;-68
2022/09/26 01:48:47;;;;;;;2.10;1.15;;;12.20;99.90;;;;;;5059573;28;20201;-69
2022/09/26 01:51:24;;;;;;;3.50;1.42;;;12.20;99.90;;;;;;5072285;28;20218;-69
2022/09/26 01:54:22;;;;;;;2.67;1.27;;;12.20;99.90;;;;;;5067330;28;20184;-68
2022/09/26 01:56:51;;;;;;;1.60;1.20;;;12.20;99.90;;;;;;5066201;28;20220;-69
2022/09/26 01:59:29;;;;;;;1.48;1.15;;;12.20;99.90;;;;;;5066727;28;20215;-69
2022/09/26 02:02:03;;;;;;;2.47;1.30;;;12.20;99.90;;;;;;5068136;28;20200;-69
2022/09/26 02:04:37;;;;;;;1.92;1.30;;;12.20;99.90;;;;;;5065848;28;20222;-69
2022/09/26 02:07:10;;;;;;;1.33;1.17;;;12.20;99.90;;;;;;5065646;28;20212;-69
2022/09/26 02:09:43;;;;;;;2.20;1.20;;;12.20;99.90;;;;;;5070881;28;20161;-68
2022/09/26 02:12:19;;;;;;;2.97;1.27;;;12.20;99.90;;;;;;5068065;28;20185;-69
2022/09/26 02:14:48;;;;;;;1.70;1.20;;;12.20;99.90;;;;;;5068240;28;20196;-68
2022/09/26 02:17:21;;;;;;;1.20;1.10;;;12.20;99.90;;;;;;5067440;28;20219;-69
2022/09/26 02:20:01;;;;;;;2.30;1.60;;;12.20;99.90;;;;;;5070292;28;20211;-69
2022/09/26 02:22:32;;;;;;;5.85;1.20;;;12.30;99.90;;;;;;5079602;28;20196;-69
2022/09/26 02:24:58;;;;;;;2.53;1.45;;;12.30;99.90;;;;;;5067378;28;20249;-69
2022/09/26 02:27:25;;;;;;;2.08;1.30;;;12.30;99.90;;;;;;5063814;28;20172;-68
2022/09/26 02:29:51;;;;;;;1.50;1.20;;;12.30;99.90;;;;;;5068258;28;20210;-69
2022/09/26 02:32:24;;;;;;;2.83;1.42;;;12.40;99.90;;;;;;5070598;28;20177;-69
2022/09/26 02:34:50;;;;;;;1.73;1.20;;;12.40;99.90;;;;;;5085249;22;20235;-70
2022/09/26 02:37:23;;;;;;;2.83;1.48;;;12.40;99.90;;;;;;5057596;28;20193;-69
2022/09/26 02:40:05;;;;;;;3.70;1.52;;;12.40;99.90;;;;;;5057738;28;20255;-65
2022/09/26 02:42:54;;;;;;;1.92;1.52;;;12.40;99.90;;;;;;5060450;28;20184;-65
2022/09/26 02:45:27;;;;;;;1.92;1.40;;;12.40;99.90;;;;;;5067065;28;20278;-70
2022/09/26 02:48:14;;;;;;;1.83;1.50;;;12.40;99.90;;;;;;5052469;28;20197;-68
2022/09/26 02:51:11;;;;;;;2.58;1.30;;;12.40;99.90;;;;;;5051248;28;20181;-71
2022/09/26 02:53:39;;;;;;;2.63;1.20;;;12.40;99.90;;;;;;5044759;28;20174;-71
2022/09/26 02:56:08;;;;;;;2.10;1.20;;;12.40;99.90;;;;;;5053312;28;20202;-70
2022/09/26 02:58:58;;;;;;;1.77;1.38;;;12.40;99.90;;;;;;5068444;28;20229;-69
2022/09/26 03:01:47;;;;;;;1.40;1.25;;;12.40;99.90;;;;;;5051727;28;20179;-71
2022/09/26 03:04:23;;;;;;;1.92;1.23;;;12.40;99.90;;;;;;5054107;28;20199;-71
2022/09/26 03:06:53;;;;;;;1.90;1.30;;;12.40;99.90;;;;;;5067482;28;20261;-69
2022/09/26 03:09:22;;;;;;;2.38;1.30;;;12.40;99.90;;;;;;5055798;28;20177;-68
2022/09/26 03:11:49;;;;;;;2.55;1.30;;;12.40;99.90;;;;;;5052507;28;20425;-71
2022/09/26 03:14:17;;;;;;;1.75;1.17;;;12.40;99.90;;;;;;5056069;28;20169;-71
2022/09/26 03:16:46;;;;;;;1.40;1.30;;;12.50;99.90;;;;;;5050025;28;20327;-71
2022/09/26 03:19:29;;;;;;;2.60;1.40;;;12.50;99.90;;;;;;5047124;28;20296;-70
2022/09/26 03:21:58;;;;;;;1.55;1.10;;;12.50;99.90;;;;;;5054795;28;20201;-70
2022/09/26 03:24:27;;;;;;;3.55;1.60;;;12.50;99.90;;;;;;5054861;28;20181;-69
2022/09/26 03:26:57;;;;;;;2.30;1.60;;;12.50;99.90;;;;;;5050594;28;20177;-70
2022/09/26 03:29:24;;;;;;;2.53;1.60;;;12.50;99.90;;;;;;5065993;28;20202;-71
2022/09/26 03:31:50;;;;;;;3.13;1.80;;;12.60;99.90;;;;;;5073178;28;20181;-70
2022/09/26 03:34:18;;;;;;;2.55;1.63;;;12.50;99.90;;;;;;5069948;28;20189;-71
2022/09/26 03:36:46;;;;;;;2.90;1.90;;;12.60;99.90;;;;;;5052503;28;20203;-70
2022/09/26 03:39:12;;;;;;;2.60;1.77;;;12.60;99.90;;;;;;5065719;28;20213;-70
2022/09/26 03:41:38;;;;;;;2.97;2.00;;;12.60;99.90;;;;;;5071888;28;20192;-71
2022/09/26 03:44:07;;;;;;;3.38;2.42;;;12.60;99.90;;;;;;5051882;28;20181;-68
2022/09/26 03:46:32;;;;;;;3.05;2.00;;;12.60;99.90;;;;;;5069272;28;20207;-68
2022/09/26 03:48:58;;;;;;;2.20;2.00;;;12.60;99.90;;;;;;5071982;28;20177;-71
2022/09/26 03:51:24;;;;;;;2.15;1.92;;;12.60;99.90;;;;;;5071145;28;20173;-69
2022/09/26 03:53:49;;;;;;;2.88;2.20;;;12.60;99.90;;;;;;5070065;28;20177;-71
2022/09/26 03:56:17;;;;;;;2.78;1.98;;;12.60;99.90;;;;;;5054281;28;20274;-64
2022/09/26 03:58:44;;;;;;;3.30;2.10;;;12.60;99.90;;;;;;5070179;28;20198;-70
2022/09/26 04:01:17;;;;;;;4.03;2.10;;;12.60;99.90;;;;;;5052808;28;20194;-70
2022/09/26 04:03:44;;;;;;;3.10;2.22;;;12.60;99.90;;;;;;5053107;28;20189;-71
2022/09/26 04:06:10;;;;;;;2.20;2.00;;;12.50;99.90;;;;;;5066145;28;20273;-71
2022/09/26 04:08:38;;;;;;;3.45;2.42;;;12.50;99.90;;;;;;5071878;28;20182;-67
2022/09/26 04:11:06;;;;;;;3.67;2.40;;;12.50;99.90;;;;;;5062286;28;20189;-70
2022/09/26 04:13:35;;;;;;;4.70;2.15;;;12.50;99.90;;;;;;5050962;28;20184;-70
2022/09/26 04:16:04;;;;;;;2.40;1.95;;;12.50;99.90;;;;;;5076176;28;20253;-70
2022/09/26 04:18:30;;;;;;;3.63;2.70;;;12.50;99.90;;;;;;5069910;28;20213;-71
2022/09/26 04:21:01;;;;;;;4.45;2.40;;;12.40;99.90;;;;;;5039297;28;20280;-72
2022/09/26 04:23:31;;;;;;;3.35;2.90;;;12.40;99.90;;;;;;5059834;28;20176;-72
2022/09/26 04:26:12;;;;;;;3.50;2.75;;;12.40;99.90;;;;;;5054196;28;20231;-70
2022/09/26 04:28:41;;;;;;;4.15;2.58;;;12.30;99.90;;;;;;5050816;28;20205;-71
2022/09/26 04:31:09;;;;;;;5.00;2.95;;;12.30;99.90;;;;;;5067666;28;20252;-71
2022/09/26 04:33:35;;;;;;;4.82;2.78;;;12.20;99.90;;;;;;5052117;28;20178;-68
2022/09/26 04:36:03;;;;;;;6.60;4.65;;;12.20;99.90;;;;;;5062935;28;20216;-71
2022/09/26 04:38:32;;;;;;;4.72;3.80;;;12.20;99.90;;;;;;5053250;28;20212;-68
2022/09/26 04:41:06;;;;;;;4.13;3.17;;;12.20;99.90;;;;;;5071365;28;20268;-70
2022/09/26 04:43:31;;;;;;;5.35;3.08;;;12.20;99.90;;;;;;5056147;28;20195;-69
2022/09/26 04:45:58;;;;;;;6.38;3.55;;;12.10;99.90;;;;;;5052723;28;20252;-70
2022/09/26 04:48:24;;;;;;;4.70;3.75;;;12.10;99.90;;;;;;5070683;28;20212;-69
2022/09/26 04:50:54;;;;;;;4.30;3.25;;;12.10;99.90;;;;;;5069986;28;20205;-72
2022/09/26 04:53:22;;;;;;;4.75;3.45;;;12.20;99.90;;;;;;5068140;28;20291;-72
2022/09/26 04:55:48;;;;;;;4.18;3.53;;;12.10;99.90;;;;;;5050768;28;20184;-73
2022/09/26 04:58:15;;;;;;;4.30;3.72;;;12.10;99.90;;;;;;5071976;28;20243;-72
2022/09/26 05:00:44;;;;;;;5.15;3.67;;;12.10;99.90;;;;;;5053010;28;20200;-72
2022/09/26 05:03:12;;;;;;;6.45;3.95;;;12.10;99.90;;;;;;5046519;28;20248;-72
2022/09/26 05:05:46;;;;;;;5.85;4.07;;;12.10;99.90;;;;;;5067463;28;20261;-72
2022/09/26 05:08:13;;;;;;;4.57;3.70;;;12.10;99.90;;;;;;5053584;28;20232;-73
2022/09/26 05:10:39;;;;;;;5.05;3.97;;;12.00;99.90;;;;;;5071173;28;20177;-72
2022/09/26 05:13:06;;;;;;;4.57;3.67;;;12.00;99.90;;;;;;5053326;28;20207;-70
2022/09/26 05:15:38;;;;;;;4.13;3.60;;;12.00;99.90;;;;;;5050249;28;20204;-70
2022/09/26 05:18:10;;;;;;;5.00;3.58;;;12.00;99.90;;;;;;5052096;28;20288;-72
2022/09/26 05:20:44;;;;;;;5.70;3.42;;;12.00;99.90;;;;;;5055638;28;20272;-73
2022/09/26 05:26:18;;;;;;;5.90;3.63;;;12.00;99.90;;;;;;5056315;28;20176;-72
2022/09/26 05:28:45;;;;;;;6.10;3.78;;;11.90;99.90;;;;;;5037900;28;20255;-72
2022/09/26 05:31:10;;;;;;;4.93;3.45;;;11.90;99.90;;;;;;5061113;28;20268;-73
2022/09/26 05:33:37;;;;;;;4.78;3.50;;;11.90;99.90;;;;;;5064160;28;20251;-72
2022/09/26 05:36:03;;;;;;;6.40;3.22;;;11.90;99.90;;;;;;5069002;28;20208;-72
2022/09/26 05:38:29;;;;;;;5.22;3.55;;;11.90;99.90;;;;;;5071452;28;20208;-72
2022/09/26 05:40:57;;;;;;;3.97;3.55;;;11.90;99.90;;;;;;5070557;28;20190;-74
2022/09/26 05:43:28;;;;;;;4.45;3.33;;;11.90;99.90;;;;;;5053785;28;20170;-71
2022/09/26 05:45:58;;;;;;;5.25;3.70;;;11.90;99.90;;;;;;5053070;28;20181;-73
2022/09/26 05:48:25;;;;;;;4.07;3.08;;;12.00;99.90;;;;;;5055115;28;20292;-69
2022/09/26 05:50:53;;;;;;;4.18;3.40;;;12.00;99.90;;;;;;5053963;28;20181;-73
2022/09/26 05:53:19;;;;;;;4.35;3.15;;;12.00;99.90;;;;;;5054892;28;20236;-73
2022/09/26 05:55:51;;;;;;;4.32;3.13;;;12.00;99.90;;;;;;5073446;28;20208;-73
2022/09/26 05:58:17;;;;;;;3.78;2.90;;;12.00;99.90;;;;;;5067717;28;20189;-73
2022/09/26 06:00:46;;;;;;;4.60;3.30;;;12.00;99.90;;;;;;5058223;28;20185;-67
2022/09/26 06:03:14;;;;;;;4.15;3.33;;;12.00;99.90;;;;;;5039493;28;20191;-71
2022/09/26 06:05:44;;;;;;;3.88;3.00;;;12.00;99.90;;;;;;5068816;28;20192;-71
2022/09/26 06:08:12;;;;;;;5.00;3.40;;;12.10;99.90;;;;;;5069086;28;20193;-72
2022/09/26 06:10:38;;;;;;;3.15;2.65;;;12.10;99.90;;;;;;5074390;28;20276;-70
2022/09/26 06:13:06;;;;;;;3.65;3.00;;;12.20;99.90;;;;;;5051078;28;20173;-71
2022/09/26 06:15:35;;;;;;;4.93;3.05;;;12.20;99.90;;;;;;5059187;28;20169;-70
2022/09/26 06:18:06;;;;;;;3.63;2.70;;;12.20;99.90;;;;;;5056457;28;20235;-71
2022/09/26 06:20:32;;;;;;;3.95;2.78;;;12.20;99.90;;;;;;5068724;28;20189;-70
2022/09/26 06:22:59;;;;;;;4.13;2.65;;;12.20;99.90;;;;;;5057613;28;20177;-71
2022/09/26 06:25:25;;;;;;;3.08;2.35;;;12.20;99.90;;;;;;5042817;28;20166;-71
2022/09/26 06:27:54;;;;;;;3.50;2.50;;;12.30;99.90;;;;;;5046699;28;20238;-69
2022/09/26 06:30:22;;;;;;;3.30;2.30;;;12.30;99.90;;;;;;5058345;28;20267;-70
2022/09/26 06:32:50;;;;;;;4.05;2.60;;;12.40;99.90;;;;;;5058075;28;20185;-70
2022/09/26 06:35:18;;;;;;;5.00;3.22;;;12.40;99.90;;;;;;5062469;28;20185;-69
2022/09/26 06:37:44;;;;;;;2.92;2.38;;;12.40;99.90;;;;;;5062607;28;20170;-70
2022/09/26 06:40:12;;;;;;;3.55;2.78;;;12.40;99.90;;;;;;5058378;28;20177;-70
2022/09/26 06:42:42;;;;;;;3.60;2.70;;;12.40;99.90;;;;;;5047560;28;20193;-70
2022/09/26 06:45:09;;;;;;;3.67;2.78;;;12.50;99.90;;;;;;5062523;28;20173;-69
2022/09/26 06:47:35;;;;;;;3.67;2.30;;;12.50;99.90;;;;;;5081596;28;20170;-70
2022/09/26 06:50:01;;;;;;;3.95;2.53;;;12.60;99.90;;;;;;5058272;28;20183;-70
2022/09/26 06:52:33;;;;;;;4.22;2.65;;;12.60;99.90;;;;;;5056945;28;20223;-70
2022/09/26 06:55:02;;;;;;;3.58;2.60;;;12.70;99.90;;;;;;5058168;28;20158;-70
2022/09/26 06:57:39;;;;;;;2.65;2.30;;;12.70;99.90;;;;;;5058026;28;20176;-70
2022/09/26 07:00:09;;;;;;;3.67;2.75;;;12.80;99.90;;;;;;5055659;28;20177;-67
2022/09/26 07:02:47;;;;;;;2.97;2.67;;;12.80;99.90;;;;;;5055549;28;20189;-70
2022/09/26 07:05:13;;;;;;;4.15;3.10;;;12.90;99.90;;;;;;5074770;28;20231;-70
2022/09/26 07:07:42;;;;;;;3.38;3.05;;;12.90;99.90;;;;;;5071597;28;20272;-69
2022/09/26 07:10:10;;;;;;;3.63;2.50;;;13.00;99.90;;;;;;5050631;28;20205;-73
2022/09/26 07:12:39;;;;;;;3.83;2.60;;;13.00;99.90;;;;;;5053247;28;20182;-71
2022/09/26 07:15:06;;;;;;;5.22;2.78;;;13.10;99.90;;;;;;5055020;28;20185;-69
2022/09/26 07:17:32;;;;;;;3.97;2.25;;;13.10;99.90;;;;;;5048280;28;20215;-72
2022/09/26 07:19:57;;;;;;;3.35;2.47;;;13.20;99.90;;;;;;5049816;28;20205;-70
2022/09/26 07:22:23;;;;;;;5.28;2.72;;;13.30;99.90;;;;;;5055744;28;20177;-71
2022/09/26 07:24:51;;;;;;;3.53;2.35;;;13.30;99.90;;;;;;5069507;28;20208;-71
2022/09/26 07:27:17;;;;;;;2.85;2.55;;;13.40;99.90;;;;;;5055095;28;20208;-72
2022/09/26 07:29:46;;;;;;;3.85;2.80;;;13.40;99.90;;;;;;5055762;28;20178;-71
2022/09/26 07:32:12;;;;;;;5.50;2.40;;;13.50;99.90;;;;;;5063765;28;20189;-70
2022/09/26 07:34:38;;;;;;;3.25;2.30;;;13.60;99.90;;;;;;5051924;28;20227;-70
2022/09/26 07:37:04;;;;;;;2.88;2.28;;;13.60;99.90;;;;;;5051900;28;20515;-70
2022/09/26 07:39:29;;;;;;;3.22;2.28;;;13.70;99.90;;;;;;5057688;28;20202;-71
2022/09/26 07:41:55;;;;;;;2.63;2.17;;;13.70;99.90;;;;;;5068972;28;20173;-71
2022/09/26 07:44:21;;;;;;;3.35;2.33;;;13.80;99.90;;;;;;5075569;28;20259;-70
2022/09/26 07:52:21;;;;;;;4.32;2.10;;;13.90;99.90;;;;;;5055756;28;20186;-71
2022/09/26 07:54:49;;;;;;;2.40;1.85;;;14.00;99.90;;;;;;5049990;28;20219;-70
2022/09/26 07:57:18;;;;;;;2.30;1.70;;;14.00;99.90;;;;;;5046005;28;20251;-71
2022/09/26 07:59:44;;;;;;;2.88;1.98;;;14.10;99.90;;;;;;5054967;28;20223;-71
2022/09/26 08:02:24;;;;;;;2.75;1.67;;;14.10;99.90;;;;;;5073710;28;20181;-71
2022/09/26 08:04:52;;;;;;;2.85;2.08;;;14.20;99.90;;;;;;5061648;28;20170;-71
2022/09/26 08:07:21;;;;;;;2.10;1.70;;;14.30;99.90;;;;;;5076790;28;20274;-69
2022/09/26 08:09:47;;;;;;;2.22;1.65;;;14.30;99.90;;;;;;5058088;28;20188;-71
2022/09/26 08:12:13;;;;;;;3.13;1.85;;;14.40;99.90;;;;;;5045760;28;20198;-71
2022/09/26 08:14:39;;;;;;;3.20;1.67;;;14.50;99.90;;;;;;5050626;28;20255;-72
2022/09/26 08:17:07;;;;;;;1.70;1.60;;;14.60;99.90;;;;;;5054408;28;20177;-71
2022/09/26 08:19:35;;;;;;;2.10;1.45;;;14.60;99.90;;;;;;5073452;28;20205;-72
2022/09/26 08:22:00;;;;;;;2.60;1.40;;;14.70;99.90;;;;;;5060200;28;20169;-72
2022/09/26 08:24:28;;;;;;;3.47;1.60;;;14.80;99.90;;;;;;5060391;28;20178;-72
2022/09/26 08:26:54;;;;;;;3.03;1.40;;;14.80;99.90;;;;;;5074913;28;20200;-73
2022/09/26 08:29:22;;;;;;;1.88;1.13;;;14.80;99.90;;;;;;5077267;28;20181;-71
2022/09/26 08:31:49;;;;;;;2.53;1.30;;;14.80;99.90;;;;;;5060208;28;20186;-72
2022/09/26 08:34:14;;;;;;;1.40;1.00;;;14.80;99.90;;;;;;5062418;28;20214;-69
2022/09/26 08:36:40;;;;;;;2.67;0.90;;;14.80;99.90;;;;;;5065468;28;20193;-71
2022/09/26 08:39:06;;;;;;;1.75;1.00;;;14.70;99.90;;;;;;5078530;28;20193;-72
2022/09/26 08:41:35;;;;;;;2.90;1.52;;;14.60;99.90;;;;;;5059198;28;20181;-73
2022/09/26 08:44:21;;;;;;;1.38;0.80;;;14.60;99.90;;;;;;5060315;28;20280;-72
2022/09/26 08:47:01;;;;;;;2.05;1.00;;;14.60;99.90;;;;;;5060728;28;20197;-73
2022/09/26 08:49:58;;;;;;;1.55;1.00;;;14.50;99.90;;;;;;5060913;28;20242;-71
2022/09/26 08:52:45;;;;;;;1.13;0.82;;;14.50;99.90;;;;;;5077596;28;20188;-70
2022/09/26 08:55:15;;;;;;;2.65;0.93;;;14.50;99.90;;;;;;5046239;28;20186;-72
2022/09/26 08:57:50;;;;;;;1.88;1.00;;;14.40;99.90;;;;;;5058013;28;20229;-70
2022/09/26 09:00:24;;;;;;;3.63;1.20;;;14.40;99.90;;;;;;5059755;28;20216;-70
2022/09/26 09:03:03;;;;;;;2.47;1.20;;;14.40;99.90;;;;;;5077317;28;20170;-71
2022/09/26 09:05:47;;;;;;;1.45;1.10;;;14.40;99.90;;;;;;5059505;28;20181;-70
2022/09/26 09:08:21;;;;;;;2.47;1.00;;;14.40;99.90;;;;;;5073130;28;20181;-71
2022/09/26 09:11:00;;;;;;;3.38;1.27;;;14.40;99.90;;;;;;5061433;28;20188;-72
2022/09/26 09:13:42;;;;;;;1.27;0.90;;;14.40;99.90;;;;;;5059835;28;20196;-67
2022/09/26 09:16:29;;;;;;;1.55;1.02;;;14.40;99.90;;;;;;5061598;28;20196;-72
2022/09/26 09:19:18;;;;;;;1.13;0.93;;;14.40;99.90;;;;;;5059580;28;20208;-71
2022/09/26 09:21:52;;;;;;;2.95;1.10;;;14.40;99.90;;;;;;5060036;28;20169;-71
2022/09/26 09:24:39;;;;;;;2.15;1.10;;;14.40;99.90;;;;;;5061084;28;20185;-72
2022/09/26 09:27:29;;;;;;;4.53;1.92;;;14.40;99.90;;;;;;5053386;28;20204;-70
2022/09/26 09:30:08;;;;;;;2.60;1.35;;;14.40;99.90;;;;;;5070287;28;20178;-71
2022/09/26 09:33:00;;;;;;;2.28;1.35;;;14.30;99.90;;;;;;5071885;28;20181;-72
2022/09/26 09:35:51;;;;;;;2.40;1.33;;;14.30;99.90;;;;;;5059670;28;20260;-71
2022/09/26 09:38:21;;;;;;;3.25;1.30;;;14.20;99.90;;;;;;5073263;28;20198;-72
2022/09/26 09:41:10;;;;;;;2.28;1.50;;;14.20;99.90;;;;;;5076718;28;20288;-71
2022/09/26 09:43:35;;;;;;;2.15;1.52;;;14.20;99.90;;;;;;5053627;28;20238;-71
2022/09/26 09:46:09;;;;;;;2.40;1.70;;;14.20;99.90;;;;;;5049573;28;20235;-70
2022/09/26 09:48:37;;;;;;;2.20;1.40;;;14.10;99.90;;;;;;5060536;28;20261;-71
2022/09/26 09:51:22;;;;;;;2.95;1.90;;;14.10;99.90;;;;;;5059836;28;20257;-70
2022/09/26 09:54:09;;;;;;;3.20;1.40;;;14.10;99.90;;;;;;5059627;28;20205;-68
2022/09/26 09:56:53;;;;;;;1.92;1.40;;;14.00;99.90;;;;;;5060174;28;20169;-72
2022/09/26 09:59:39;;;;;;;1.75;1.25;;;14.00;99.90;;;;;;5052133;28;20292;-71
2022/09/26 10:02:28;;;;;;;2.85;1.30;;;13.90;99.90;;;;;;5054443;28;20200;-71
2022/09/26 10:05:00;;;;;;;1.63;1.23;;;13.90;99.90;;;;;;5049044;28;20184;-69
2022/09/26 10:07:33;;;;;;;2.85;1.33;;;13.80;99.90;;;;;;5075703;28;20192;-72
2022/09/26 10:10:00;;;;;;;1.58;1.20;;;13.80;99.90;;;;;;5076554;28;20177;-67
2022/09/26 10:12:31;;;;;;;1.50;1.20;;;13.70;99.90;;;;;;5057659;28;20208;-71
2022/09/26 10:15:18;;;;;;;2.03;1.20;;;13.80;99.90;;;;;;5060063;28;20229;-71
2022/09/26 10:18:15;;;;;;;2.35;1.38;;;13.70;99.90;;;;;;5042586;28;20201;-68
2022/09/26 10:20:51;;;;;;;2.30;1.60;;;13.70;99.90;;;;;;5048399;28;20211;-71
2022/09/26 10:23:35;;;;;;;1.80;1.10;;;13.70;99.90;;;;;;5058602;28;20196;-70
2022/09/26 10:26:06;;;;;;;3.15;1.13;;;13.70;99.90;;;;;;5057978;28;20290;-71
2022/09/26 10:28:43;;;;;;;1.60;1.17;;;13.80;99.90;;;;;;5071050;28;20169;-68
2022/09/26 10:31:10;;;;;;;1.60;1.40;;;13.80;99.90;;;;;;5044829;28;20172;-71
2022/09/26 10:33:46;;;;;;;1.85;1.20;;;13.80;99.90;;;;;;5057121;28;20197;-71
2022/09/26 10:36:20;;;;;;;1.58;1.20;;;13.80;99.90;;;;;;5061730;28;20231;-72
2022/09/26 10:41:47;;;;;;;2.05;1.20;;;13.90;99.90;;;;;;5054887;28;20192;-68
2022/09/26 10:44:37;;;;;;;2.00;1.30;;;13.90;99.90;;;;;;5066648;28;20197;-70
2022/09/26 10:47:11;;;;;;;2.63;1.23;;;13.90;99.90;;;;;;5088511;28;20208;-70
2022/09/26 10:49:45;;;;;;;1.75;1.40;;;13.90;99.90;;;;;;5071741;28;20192;-71
2022/09/26 10:52:15;;;;;;;1.45;1.20;;;14.00;99.90;;;;;;5069472;28;20202;-70
2022/09/26 10:55:10;;;;;;;2.42;1.15;;;14.00;99.90;;;;;;5057664;28;20169;-70
2022/09/26 10:57:39;;;;;;;1.50;1.40;;;14.00;99.90;;;;;;5071033;28;20181;-67
2022/09/26 11:00:09;;;;;;;2.03;1.38;;;14.10;99.90;;;;;;5081004;28;20216;-68
2022/09/26 11:02:37;;;;;;;1.75;1.30;;;14.10;99.90;;;;;;5071779;28;20161;-71
2022/09/26 11:07:51;;;;;;;2.08;1.08;;;14.10;99.90;;;;;;5060856;28;20196;-69
2022/09/26 11:10:31;;;;;;;1.80;1.20;;;14.10;99.90;;;;;;5090637;28;20282;-70
2022/09/26 11:13:14;;;;;;;1.30;1.20;;;14.10;99.90;;;;;;5089691;28;20212;-69
2022/09/26 11:16:09;;;;;;;2.08;1.20;;;14.10;99.90;;;;;;5063027;28;20166;-69
2022/09/26 11:18:43;;;;;;;3.25;1.48;;;14.10;99.90;;;;;;5086845;28;20201;-68
2022/09/26 11:21:45;;;;;;;1.50;1.10;;;14.20;99.90;;;;;;5065541;28;20156;-68
2022/09/26 11:24:36;;;;;;;2.63;1.20;;;14.20;99.90;;;;;;5075063;28;20185;-69
2022/09/26 11:27:24;;;;;;;1.77;1.20;;;14.20;99.90;;;;;;5092194;28;20177;-70
2022/09/26 11:29:54;;;;;;;2.53;1.30;;;14.30;99.90;;;;;;5072758;28;20211;-70
2022/09/26 11:32:43;;;;;;;1.77;1.38;;;14.30;99.90;;;;;;5076063;28;20162;-70
2022/09/26 11:35:16;;;;;;;2.53;1.15;;;14.40;99.90;;;;;;5073580;28;20188;-70
2022/09/26 11:38:02;;;;;;;2.58;1.27;;;14.50;99.90;;;;;;5082380;28;20161;-70
2022/09/26 11:40:58;;;;;;;1.98;1.60;;;14.50;99.90;;;;;;5092304;28;20219;-70
2022/09/26 11:43:29;;;;;;;1.45;1.05;;;14.60;99.90;;;;;;5071703;28;20185;-71
2022/09/26 11:46:28;;;;;;;1.58;1.30;;;14.60;99.90;;;;;;5075027;28;20208;-68
2022/09/26 11:49:09;;;;;;;2.30;0.93;;;14.70;99.90;;;;;;5075625;28;20192;-70
2022/09/26 11:52:00;;;;;;;1.65;1.10;;;14.70;99.90;;;;;;5071534;28;20189;-70
2022/09/26 11:54:44;;;;;;;4.40;1.00;;;14.80;99.90;;;;;;5076578;28;20185;-70
2022/09/26 11:57:33;;;;;;;3.25;1.00;;;14.80;99.90;;;;;;5064163;28;20174;-70
2022/09/26 12:00:14;;;;;;;1.92;1.10;;;14.80;99.90;;;;;;5090750;28;20213;-71
2022/09/26 12:03:24;;;;;;;1.67;1.02;;;14.80;99.90;;;;;;5066968;28;20158;-68
2022/09/26 12:06:18;;;;;;;2.47;0.80;;;14.80;99.90;;;;;;5060205;28;20182;-68
2022/09/26 12:09:06;;;;;;;1.20;0.90;;;14.80;99.90;;;;;;5059847;28;20170;-70
2022/09/26 12:11:37;;;;;;;1.13;0.93;;;14.90;99.90;;;;;;5058896;28;20181;-68
2022/09/26 12:14:17;;;;;;;2.00;1.00;;;14.90;99.90;;;;;;5073462;28;20194;-70
2022/09/26 12:16:47;;;;;;;3.22;1.20;;;14.90;99.90;;;;;;5076930;28;20205;-69
2022/09/26 12:19:36;;;;;;;2.33;1.00;;;14.90;99.90;;;;;;5057712;28;20221;-71
2022/09/26 12:25:17;;;;;;;3.63;1.48;;;14.90;99.90;;;;;;5074569;28;20176;-66
2022/09/26 12:28:11;;;;;;;1.52;0.90;;;14.90;99.90;;;;;;5066484;28;20182;-70
2022/09/26 12:30:53;;;;;;;2.25;0.90;;;15.00;99.90;;;;;;5071629;28;20205;-71
2022/09/26 12:33:50;;;;;;;2.78;1.10;;;15.00;99.90;;;;;;5059987;28;20189;-70
2022/09/26 12:36:51;;;;;;;1.17;0.88;;;15.00;99.90;;;;;;5070212;28;20195;-70
2022/09/26 12:39:34;;;;;;;2.45;1.02;;;15.10;99.90;;;;;;5051667;28;20201;-68
2022/09/26 12:42:33;;;;;;;1.52;1.00;;;15.10;99.90;;;;;;5071130;28;20221;-70
2022/09/26 12:45:25;;;;;;;2.55;1.20;;;15.10;99.90;;;;;;5072381;28;20201;-68
2022/09/26 12:48:30;;;;;;;2.22;1.10;;;15.20;99.90;;;;;;5081654;28;20170;-68
2022/09/26 12:51:07;;;;;;;2.47;0.95;;;15.20;99.90;;;;;;5064934;28;20237;-71
2022/09/26 12:53:56;;;;;;;1.45;1.00;;;15.30;99.90;;;;;;5073319;28;20165;-70
2022/09/26 12:56:34;;;;;;;1.63;0.90;;;15.30;99.90;;;;;;5033200;28;20185;-67
2022/09/26 12:59:14;;;;;;;1.75;1.15;;;15.30;99.90;;;;;;5087011;28;20502;-70
2022/09/26 13:02:12;;;;;;;2.58;1.00;;;15.30;99.90;;;;;;5068897;28;20193;-70
2022/09/26 13:04:58;;;;;;;2.63;1.25;;;15.30;99.90;;;;;;5088345;28;20197;-70
2022/09/26 13:07:29;;;;;;;1.95;1.20;;;15.30;99.90;;;;;;5091774;28;20204;-71
2022/09/26 13:09:58;;;;;;;3.47;1.25;;;15.40;99.90;;;;;;5071038;28;20188;-70
2022/09/26 13:13:05;;;;;;;2.22;1.17;;;15.40;99.90;;;;;;5074559;28;20300;-71
2022/09/26 13:16:03;;;;;;;1.90;1.10;;;15.40;99.90;;;;;;5074306;28;20200;-70
2022/09/26 13:18:38;;;;;;;1.73;1.15;;;15.30;99.90;;;;;;5050973;28;20201;-71
2022/09/26 13:21:14;;;;;;;1.30;0.90;;;15.30;99.90;;;;;;5073301;28;20204;-70
2022/09/26 13:23:52;;;;;;;1.02;0.70;;;15.30;99.90;;;;;;5066411;28;20166;-67
2022/09/26 13:26:30;;;;;;;4.45;1.02;;;15.20;99.90;;;;;;5071247;28;20197;-72
2022/09/26 13:29:09;;;;;;;1.45;0.90;;;15.20;99.90;;;;;;5074111;28;20184;-69
2022/09/26 13:31:54;;;;;;;2.97;0.98;;;15.10;99.90;;;;;;5069781;28;20166;-71
2022/09/26 13:34:41;;;;;;;1.73;1.10;;;15.00;99.90;;;;;;5056671;28;20193;-70
2022/09/26 13:37:27;;;;;;;1.45;0.90;;;14.80;99.90;;;;;;5064258;28;20219;-71
2022/09/26 13:40:07;;;;;;;1.52;0.90;;;14.70;99.90;;;;;;5081662;28;20287;-70
2022/09/26 13:43:06;;;;;;;1.25;0.90;;;14.60;99.90;;;;;;5051280;28;20189;-70
2022/09/26 13:45:45;;;;;;;2.00;1.00;;;14.40;99.90;;;;;;5060474;28;20222;-69